createdAt,value
2023-04-15T00:00:00.128Z,94279.34
2023-04-15T00:03:03.563Z,94281.22
2023-04-15T00:06:07.048Z,94278.56
2023-04-15T00:09:11.582Z,94279.34
2023-04-15T00:12:14.714Z,94280.13
2023-04-15T00:15:18.075Z,94283.09
2023-04-15T00:18:21.088Z,94299.06
2023-04-15T00:21:24.128Z,94296.09
2023-04-15T00:24:29.438Z,94319.25
2023-04-15T00:27:32.561Z,94318.47
2023-04-15T00:30:35.665Z,94301.72
2023-04-15T00:33:38.812Z,94303.16
2023-04-15T00:36:41.866Z,94303.47
2023-04-15T00:39:46.429Z,94298.16
2023-04-15T00:42:49.454Z,94298.94
2023-04-15T00:45:54.860Z,94302.19
2023-04-15T00:48:58.117Z,94325.53
2023-04-15T00:52:01.220Z,94313.31
2023-04-15T00:55:06.540Z,94330.06
2023-04-15T00:58:09.611Z,94311.75
2023-04-15T01:01:12.786Z,94315.22
2023-04-15T01:04:17.210Z,94325.84
2023-04-15T01:07:20.376Z,94326.91
2023-04-15T01:10:25.053Z,94326.13
2023-04-15T01:13:28.712Z,94318.16
2023-04-15T01:16:32.571Z,94317.69
2023-04-15T01:19:35.856Z,94316.59
2023-04-15T01:22:39.569Z,94303.94
2023-04-15T01:25:45.553Z,94301.28
2023-04-15T01:28:49.110Z,94305.03
2023-04-15T01:31:53.287Z,94299.41
2023-04-15T01:34:56.699Z,94310.34
2023-04-15T01:38:05.393Z,94312.56
2023-04-15T01:41:09.953Z,94316.78
2023-04-15T01:44:13.029Z,94308.34
2023-04-15T01:47:16.127Z,94303.00
2023-04-15T01:50:20.556Z,94309.91
2023-04-15T01:53:23.576Z,94303.00
2023-04-15T01:56:28.146Z,94304.13
2023-04-15T01:59:32.318Z,94308.00
2023-04-15T02:02:36.128Z,94313.66
2023-04-15T02:05:39.321Z,94309.44
2023-04-15T02:08:42.402Z,94315.53
2023-04-15T02:11:47.141Z,94320.41
2023-04-15T02:14:50.199Z,94324.94
2023-04-15T02:17:55.471Z,94323.06
2023-04-15T02:20:59.068Z,94319.63
2023-04-15T02:24:02.393Z,94311.91
2023-04-15T02:27:06.911Z,94313.19
2023-04-15T02:30:10.426Z,94293.63
2023-04-15T02:33:13.492Z,94311.16
2023-04-15T02:36:16.643Z,94297.38
2023-04-15T02:39:20.240Z,94295.19
2023-04-15T02:42:27.772Z,94297.38
2023-04-15T02:45:30.804Z,94306.91
2023-04-15T02:48:33.957Z,94298.94
2023-04-15T02:51:37.028Z,94314.72
2023-04-15T02:54:40.128Z,94306.44
2023-04-15T02:57:44.586Z,94311.75
2023-04-15T03:00:47.638Z,94319.28
2023-04-15T03:03:51.007Z,94309.72
2023-04-15T03:06:54.535Z,94324.91
2023-04-15T03:09:57.961Z,94327.25
2023-04-15T03:13:02.318Z,94338.97
2023-04-15T03:16:05.810Z,94324.91
2023-04-15T03:19:09.105Z,94332.75
2023-04-15T03:22:12.113Z,94342.59
2023-04-15T03:25:15.246Z,94348.38
2023-04-15T03:28:19.689Z,94341.81
2023-04-15T03:31:22.907Z,94348.38
2023-04-15T03:34:26.038Z,94365.44
2023-04-15T03:37:29.085Z,94363.09
2023-04-15T03:40:32.166Z,94345.56
2023-04-15T03:43:36.664Z,94358.56
2023-04-15T03:46:39.711Z,94370.75
2023-04-15T03:49:42.835Z,94368.72
2023-04-15T03:52:46.026Z,94387.97
2023-04-15T03:55:49.047Z,94377.66
2023-04-15T03:58:53.502Z,94382.78
2023-04-15T04:01:56.756Z,94372.47
2023-04-15T04:04:59.836Z,94377.78
2023-04-15T04:08:02.858Z,94373.25
2023-04-15T04:11:06.668Z,94388.44
2023-04-15T04:14:11.086Z,94398.59
2023-04-15T04:17:14.185Z,94385.31
2023-04-15T04:20:17.371Z,94384.53
2023-04-15T04:23:20.798Z,94398.44
2023-04-15T04:26:24.065Z,94397.03
2023-04-15T04:29:28.489Z,94384.53
2023-04-15T04:32:31.637Z,94386.41
2023-04-15T04:35:37.756Z,94396.56
2023-04-15T04:38:40.894Z,94398.44
2023-04-15T04:41:44.021Z,94398.13
2023-04-15T04:44:48.516Z,94406.56
2023-04-15T04:47:51.618Z,94406.25
2023-04-15T04:50:55.033Z,94406.91
2023-04-15T04:53:58.075Z,94411.59
2023-04-15T04:57:01.810Z,94409.41
2023-04-15T05:00:08.884Z,94415.19
2023-04-15T05:03:12.416Z,94415.97
2023-04-15T05:06:15.794Z,94422.69
2023-04-15T05:09:19.190Z,94435.22
2023-04-15T05:12:22.285Z,94441.16
2023-04-15T05:15:26.759Z,94448.50
2023-04-15T05:18:29.850Z,94461.03
2023-04-15T05:21:33.048Z,94457.44
2023-04-15T05:24:36.104Z,94451.34
2023-04-15T05:27:39.280Z,94454.00
2023-04-15T05:30:44.075Z,94468.53
2023-04-15T05:33:47.334Z,94458.81
2023-04-15T05:36:50.643Z,94457.75
2023-04-15T05:39:53.900Z,94449.44
2023-04-15T05:42:56.954Z,94449.59
2023-04-15T05:46:01.732Z,94457.75
2023-04-15T05:49:04.827Z,94452.44
2023-04-15T05:52:08.185Z,94462.63
2023-04-15T05:55:11.944Z,94459.50
2023-04-15T05:58:15.038Z,94451.97
2023-04-15T06:01:19.769Z,94467.31
2023-04-15T06:04:23.078Z,94473.19
2023-04-15T06:07:26.360Z,94475.97
2023-04-15T06:10:29.909Z,94472.19
2023-04-15T06:13:33.403Z,94472.66
2023-04-15T06:16:38.022Z,94469.25
2023-04-15T06:19:41.166Z,94470.72
2023-04-15T06:22:44.322Z,94468.34
2023-04-15T06:25:47.351Z,94476.97
2023-04-15T06:28:50.733Z,94481.81
2023-04-15T06:31:56.540Z,94471.63
2023-04-15T06:34:59.650Z,94474.16
2023-04-15T06:38:02.747Z,94478.22
2023-04-15T06:41:06.032Z,94492.91
2023-04-15T06:44:09.103Z,94493.22
2023-04-15T06:47:14.810Z,94497.63
2023-04-15T06:50:17.839Z,94501.09
2023-04-15T06:53:20.943Z,94504.59
2023-04-15T06:56:23.984Z,94509.13
2023-04-15T06:59:27.386Z,94505.19
2023-04-15T07:02:31.894Z,94516.13
2023-04-15T07:05:34.992Z,94511.44
2023-04-15T07:08:38.040Z,94519.44
2023-04-15T07:11:41.057Z,94515.84
2023-04-15T07:14:44.688Z,94509.88
2023-04-15T07:17:49.126Z,94514.44
2023-04-15T07:20:52.308Z,94516.91
2023-04-15T07:23:55.408Z,94506.75
2023-04-15T07:27:00.843Z,94506.13
2023-04-15T07:30:04.567Z,94505.19
2023-04-15T07:33:08.960Z,94517.72
2023-04-15T07:36:12.050Z,94521.44
2023-04-15T07:39:15.131Z,94513.59
2023-04-15T07:42:18.265Z,94512.19
2023-04-15T07:45:21.810Z,94514.41
2023-04-15T07:48:26.654Z,94509.41
2023-04-15T07:51:29.805Z,94523.03
2023-04-15T07:54:32.837Z,94529.16
2023-04-15T07:57:36.263Z,94525.53
2023-04-15T08:00:39.548Z,94529.13
2023-04-15T08:03:44.195Z,94538.03
2023-04-15T08:06:49.935Z,94535.38
2023-04-15T08:09:53.049Z,94535.84
2023-04-15T08:12:56.537Z,94535.69
2023-04-15T08:16:16.549Z,94533.81
2023-04-15T08:19:21.370Z,94527.38
2023-04-15T08:22:25.101Z,94524.25
2023-04-15T08:25:28.418Z,94521.09
2023-04-15T08:28:31.610Z,94522.00
2023-04-15T08:31:34.886Z,94526.72
2023-04-15T08:34:39.366Z,94517.75
2023-04-15T08:37:42.895Z,94511.66
2023-04-15T08:40:47.174Z,94512.56
2023-04-15T08:43:55.032Z,94507.38
2023-04-15T08:46:58.354Z,94509.72
2023-04-15T08:50:05.717Z,94516.59
2023-04-15T08:53:09.011Z,94512.44
2023-04-15T08:59:19.012Z,94507.28
2023-04-15T09:02:23.352Z,94508.06
2023-04-15T09:05:27.930Z,94502.41
2023-04-15T09:08:31.161Z,94497.53
2023-04-15T09:11:34.265Z,94493.63
2023-04-15T09:14:37.375Z,94483.28
2023-04-15T09:17:44.283Z,94477.16
2023-04-15T09:20:48.827Z,94477.16
2023-04-15T09:23:59.862Z,94466.81
2023-04-15T09:27:03.748Z,94468.25
2023-04-15T09:30:10.600Z,94466.81
2023-04-15T09:33:16.586Z,94479.38
2023-04-15T09:36:21.075Z,94479.53
2023-04-15T09:39:24.408Z,94472.47
2023-04-15T09:42:28.794Z,94478.31
2023-04-15T09:45:32.629Z,94471.59
2023-04-15T09:48:35.744Z,94479.88
2023-04-15T09:51:42.182Z,94486.50
2023-04-15T09:54:46.909Z,94489.47
2023-04-15T09:57:50.050Z,94486.19
2023-04-15T10:00:54.529Z,94471.09
2023-04-15T10:03:59.552Z,94472.66
2023-04-15T10:07:06.246Z,94468.44
2023-04-15T10:10:10.266Z,94459.66
2023-04-15T10:13:15.331Z,94460.44
2023-04-15T10:16:21.909Z,94465.00
2023-04-15T10:19:28.953Z,94445.91
2023-04-15T10:22:34.145Z,94437.44
2023-04-15T10:25:38.134Z,94437.44
2023-04-15T10:28:41.158Z,94440.88
2023-04-15T10:31:45.066Z,94451.22
2023-04-15T10:34:49.824Z,94448.09
2023-04-15T10:37:54.366Z,94447.00
2023-04-15T10:41:14.430Z,94437.13
2023-04-15T10:44:17.574Z,94436.78
2023-04-15T10:47:22.175Z,94430.03
2023-04-15T10:50:28.713Z,94437.75
2023-04-15T10:53:33.358Z,94430.53
2023-04-15T10:56:36.483Z,94423.31
2023-04-15T11:00:00.406Z,94426.44
2023-04-15T11:03:08.183Z,94426.44
2023-04-15T11:06:11.470Z,94427.09
2023-04-15T11:09:33.454Z,94427.88
2023-04-15T11:12:37.151Z,94430.22
2023-04-15T11:15:41.705Z,94423.00
2023-04-15T11:18:55.939Z,94428.47
2023-04-15T11:21:59.050Z,94421.19
2023-04-15T11:25:04.119Z,94429.06
2023-04-15T11:28:08.037Z,94422.16
2023-04-15T11:31:14.510Z,94422.94
2023-04-15T11:34:24.290Z,94425.94
2023-04-15T11:37:31.795Z,94419.81
2023-04-15T11:40:36.900Z,94421.06
2023-04-15T11:43:40.063Z,94420.28
2023-04-15T11:46:44.467Z,94406.50
2023-04-15T11:49:48.709Z,94408.97
2023-04-15T11:52:55.326Z,94410.06
2023-04-15T11:55:59.741Z,94407.88
2023-04-15T11:59:03.086Z,94401.31
2023-04-15T12:02:13.588Z,94400.84
2023-04-15T12:05:16.947Z,94393.97
2023-04-15T12:08:20.026Z,94386.28
2023-04-15T12:11:30.657Z,94392.41
2023-04-15T12:14:34.346Z,94389.41
2023-04-15T12:17:51.740Z,94392.41
2023-04-15T12:20:55.596Z,94398.38
2023-04-15T12:23:59.401Z,94398.69
2023-04-15T12:27:08.154Z,94398.25
2023-04-15T12:30:11.936Z,94395.56
2023-04-15T12:33:15.011Z,94395.13
2023-04-15T12:36:18.214Z,94403.88
2023-04-15T12:39:23.912Z,94412.66
2023-04-15T12:42:28.317Z,94410.00
2023-04-15T12:45:31.766Z,94413.75
2023-04-15T12:48:34.841Z,94412.03
2023-04-15T12:51:37.901Z,94421.25
2023-04-15T12:54:41.235Z,94417.03
2023-04-15T12:57:45.691Z,94421.44
2023-04-15T13:00:49.023Z,94414.88
2023-04-15T13:03:52.232Z,94409.53
2023-04-15T13:06:56.278Z,94412.97
2023-04-15T13:09:59.321Z,94407.50
2023-04-15T13:13:03.878Z,94415.47
2023-04-15T13:16:07.647Z,94407.41
2023-04-15T13:19:10.774Z,94406.47
2023-04-15T13:22:15.017Z,94404.41
2023-04-15T13:25:18.005Z,94399.81
2023-04-15T13:28:22.515Z,94412.66
2023-04-15T13:31:25.716Z,94398.25
2023-04-15T13:34:28.799Z,94394.94
2023-04-15T13:37:32.099Z,94399.78
2023-04-15T13:40:35.102Z,94394.47
2023-04-15T13:43:39.497Z,94397.91
2023-04-15T13:46:42.893Z,94396.16
2023-04-15T13:49:45.980Z,94397.41
2023-04-15T13:52:49.024Z,94395.25
2023-04-15T13:55:52.036Z,94394.03
2023-04-15T13:58:59.041Z,94390.59
2023-04-15T14:02:02.218Z,94388.72
2023-04-15T14:05:05.958Z,94388.38
2023-04-15T14:08:09.014Z,94392.59
2023-04-15T14:11:12.182Z,94390.28
2023-04-15T14:14:16.613Z,94387.28
2023-04-15T14:17:19.721Z,94383.84
2023-04-15T14:20:22.712Z,94393.38
2023-04-15T14:23:25.784Z,94393.84
2023-04-15T14:26:28.855Z,94393.38
2023-04-15T14:29:33.255Z,94380.53
2023-04-15T14:32:36.366Z,94383.50
2023-04-15T14:35:39.459Z,94388.84
2023-04-15T14:38:42.525Z,94382.72
2023-04-15T14:41:45.509Z,94388.06
2023-04-15T14:44:50.082Z,94395.13
2023-04-15T14:47:53.389Z,94398.88
2023-04-15T14:50:56.516Z,94386.97
2023-04-15T14:53:59.815Z,94387.28
2023-04-15T14:57:04.656Z,94391.19
2023-04-15T15:00:16.042Z,94388.22
2023-04-15T15:03:20.226Z,94390.88
2023-04-15T15:06:25.431Z,94391.97
2023-04-15T15:09:29.133Z,94384.47
2023-04-15T15:12:33.684Z,94383.97
2023-04-15T15:15:39.559Z,94382.09
2023-04-15T15:18:42.708Z,94384.59
2023-04-15T15:21:45.684Z,94371.59
2023-04-15T15:24:48.678Z,94381.94
2023-04-15T15:27:51.866Z,94384.91
2023-04-15T15:30:56.458Z,94383.03
2023-04-15T15:33:59.677Z,94377.69
2023-04-15T15:37:02.740Z,94373.16
2023-04-15T15:40:06.730Z,94377.69
2023-04-15T15:43:10.024Z,94376.91
2023-04-15T15:46:14.547Z,94380.22
2023-04-15T15:49:17.741Z,94374.41
2023-04-15T15:52:20.912Z,94390.59
2023-04-15T15:55:25.325Z,94383.66
2023-04-15T15:58:28.467Z,94382.50
2023-04-15T16:01:32.979Z,94380.44
2023-04-15T16:04:36.836Z,94377.63
2023-04-15T16:07:40.105Z,94382.47
2023-04-15T16:10:43.440Z,94382.47
2023-04-15T16:13:46.550Z,94382.59
2023-04-15T16:16:51.116Z,94383.38
2023-04-15T16:19:58.683Z,94381.94
2023-04-15T16:23:13.122Z,94378.66
2023-04-15T16:26:16.415Z,94377.25
2023-04-15T16:29:22.230Z,94381.16
2023-04-15T16:32:27.424Z,94383.81
2023-04-15T16:35:31.324Z,94383.81
2023-04-15T16:38:35.962Z,94388.53
2023-04-15T16:41:39.376Z,94382.28
2023-04-15T16:44:42.768Z,94386.19
2023-04-15T16:47:47.324Z,94383.50
2023-04-15T16:50:50.461Z,94385.84
2023-04-15T16:53:53.525Z,94386.81
2023-04-15T16:56:56.553Z,94379.47
2023-04-15T16:59:59.563Z,94381.69
2023-04-15T17:03:04.421Z,94384.34
2023-04-15T17:06:07.920Z,94384.03
2023-04-15T17:09:11.097Z,94385.78
2023-04-15T17:12:14.978Z,94399.75
2023-04-15T17:15:18.272Z,94399.25
2023-04-15T17:18:22.732Z,94397.66
2023-04-15T17:21:27.581Z,94396.41
2023-04-15T17:24:30.693Z,94399.41
2023-04-15T17:27:33.711Z,94402.38
2023-04-15T17:30:36.939Z,94409.91
2023-04-15T17:34:02.036Z,94410.25
2023-04-15T17:37:05.034Z,94412.75
2023-04-15T17:40:09.116Z,94427.19
2023-04-15T17:43:12.125Z,94424.50
2023-04-15T17:46:15.499Z,94427.78
2023-04-15T17:49:20.053Z,94433.13
2023-04-15T17:52:23.151Z,94443.31
2023-04-15T17:55:26.363Z,94443.63
2023-04-15T17:58:29.521Z,94446.16
2023-04-15T18:01:32.650Z,94445.25
2023-04-15T18:04:37.207Z,94443.84
2023-04-15T18:07:40.383Z,94455.25
2023-04-15T18:10:43.548Z,94453.66
2023-04-15T18:13:46.601Z,94461.66
2023-04-15T18:16:50.046Z,94460.91
2023-04-15T18:19:54.513Z,94463.53
2023-04-15T18:22:57.537Z,94458.84
2023-04-15T18:26:00.683Z,94468.69
2023-04-15T18:29:03.806Z,94469.78
2023-04-15T18:32:06.915Z,94470.72
2023-04-15T18:35:11.877Z,94463.97
2023-04-15T18:38:14.997Z,94471.63
2023-04-15T18:41:18.033Z,94475.53
2023-04-15T18:44:21.249Z,94468.31
2023-04-15T18:47:26.862Z,94467.53
2023-04-15T18:50:31.581Z,94476.50
2023-04-15T18:53:34.576Z,94479.94
2023-04-15T18:56:37.686Z,94475.72
2023-04-15T18:59:40.744Z,94478.84
2023-04-15T19:02:44.207Z,94483.88
2023-04-15T19:05:48.857Z,94483.56
2023-04-15T19:08:53.021Z,94481.66
2023-04-15T19:11:57.031Z,94481.34
2023-04-15T19:15:00.114Z,94487.59
2023-04-15T19:18:05.429Z,94492.00
2023-04-15T19:21:09.998Z,94486.53
2023-04-15T19:24:12.990Z,94486.81
2023-04-15T19:27:16.123Z,94493.25
2023-04-15T19:30:19.189Z,94490.59
2023-04-15T19:33:22.261Z,94496.19
2023-04-15T19:36:29.347Z,94492.63
2023-04-15T19:39:32.387Z,94482.44
2023-04-15T19:42:35.556Z,94481.63
2023-04-15T19:45:38.743Z,94482.09
2023-04-15T19:48:41.916Z,94489.97
2023-04-15T19:51:46.370Z,94482.75
2023-04-15T19:54:49.428Z,94489.66
2023-04-15T19:57:52.529Z,94483.56
2023-04-15T20:00:55.743Z,94487.47
2023-04-15T20:03:59.037Z,94485.56
2023-04-15T20:10:39.012Z,94492.91
2023-04-15T20:13:42.002Z,94499.81
2023-04-15T20:16:45.090Z,94505.59
2023-04-15T20:19:48.143Z,94502.47
2023-04-15T20:22:53.233Z,94500.28
2023-04-15T20:25:56.815Z,94493.38
2023-04-15T20:29:00.621Z,94496.03
2023-04-15T20:32:03.683Z,94502.00
2023-04-15T20:35:08.073Z,94510.78
2023-04-15T20:38:12.853Z,94516.44
2023-04-15T20:41:15.922Z,94517.84
2023-04-15T20:44:18.993Z,94514.88
2023-04-15T20:47:22.089Z,94509.41
2023-04-15T20:50:25.458Z,94505.97
2023-04-15T20:53:29.928Z,94514.72
2023-04-15T20:56:32.900Z,94526.94
2023-04-15T20:59:36.099Z,94524.28
2023-04-15T21:02:39.442Z,94522.41
2023-04-15T21:05:42.683Z,94521.75
2023-04-15T21:08:47.141Z,94526.63
2023-04-15T21:14:56.664Z,94535.09
2023-04-15T21:17:59.716Z,94531.19
2023-04-15T21:21:03.834Z,94539.81
2023-04-15T21:24:08.885Z,94543.38
2023-04-15T21:27:11.918Z,94550.88
2023-04-15T21:30:15.074Z,94543.22
2023-04-15T21:33:20.415Z,94554.19
2023-04-15T21:36:23.424Z,94556.84
2023-04-15T21:39:27.911Z,94557.94
2023-04-15T21:42:31.162Z,94566.25
2023-04-15T21:45:34.307Z,94559.06
2023-04-15T21:48:37.481Z,94562.81
2023-04-15T21:51:40.721Z,94562.03
2023-04-15T21:54:45.117Z,94566.56
2023-04-15T21:57:48.144Z,94567.69
2023-04-15T22:00:51.412Z,94565.00
2023-04-15T22:03:54.728Z,94560.78
2023-04-15T22:07:01.682Z,94564.53
2023-04-15T22:10:06.933Z,94561.09
2023-04-15T22:13:11.166Z,94560.31
2023-04-15T22:16:14.222Z,94565.66
2023-04-15T22:19:17.309Z,94558.72
2023-04-15T22:22:20.665Z,94562.03
2023-04-15T22:25:31.689Z,94562.50
2023-04-15T22:28:34.803Z,94567.03
2023-04-15T22:31:38.028Z,94560.91
2023-04-15T22:34:41.086Z,94559.34
2023-04-15T22:37:44.105Z,94560.13
2023-04-15T22:40:48.618Z,94559.34
2023-04-15T22:43:51.680Z,94558.25
2023-04-15T22:46:54.673Z,94558.56
2023-04-15T22:49:57.635Z,94550.59
2023-04-15T22:53:00.658Z,94547.16
2023-04-15T22:56:05.204Z,94545.59
2023-04-15T22:59:08.573Z,94541.81
2023-04-15T23:02:12.169Z,94543.69
2023-04-15T23:05:15.289Z,94547.16
2023-04-15T23:08:18.404Z,94550.59
2023-04-15T23:11:22.853Z,94545.59
2023-04-15T23:14:28.092Z,94550.13
2023-04-15T23:17:31.091Z,94547.00
2023-04-15T23:20:34.317Z,94556.53
2023-04-15T23:23:37.335Z,94547.00
2023-04-15T23:26:41.983Z,94549.66
2023-04-15T23:29:45.079Z,94552.00
2023-04-15T23:32:48.184Z,94557.31
2023-04-15T23:35:51.523Z,94553.88
2023-04-15T23:38:54.527Z,94552.31
2023-04-15T23:41:58.915Z,94548.88
2023-04-15T23:45:01.935Z,94541.66
2023-04-15T23:48:05.019Z,94543.56
2023-04-15T23:51:08.099Z,94532.44
2023-04-15T23:54:11.109Z,94536.97
2023-04-15T23:57:15.579Z,94534.31
